sensor_id;sensor_type;location;lat;lon;timestamp;pressure;altitude;pressure_sealevel;temperature;humidity
8705;BME280;4389;41.932;25.904;2023-09-12T00:00:45;-16439.59;;;13.94;88.91
8705;BME280;4389;41.932;25.904;2023-09-12T00:03:12;-16440.13;;;13.96;88.50
8705;BME280;4389;41.932;25.904;2023-09-12T00:05:39;-16439.59;;;13.94;88.79
8705;BME280;4389;41.932;25.904;2023-09-12T00:08:07;-16439.06;;;13.92;89.22
8705;BME280;4389;41.932;25.904;2023-09-12T00:10:34;-16436.53;;;13.82;89.01
8705;BME280;4389;41.932;25.904;2023-09-12T00:13:01;-16435.88;;;13.80;89.85
8705;BME280;4389;41.932;25.904;2023-09-12T00:15:28;-16435.59;;;13.79;90.01
8705;BME280;4389;41.932;25.904;2023-09-12T00:17:55;-16434.94;;;13.76;90.33
8705;BME280;4389;41.932;25.904;2023-09-12T00:20:22;-16434.41;;;13.74;90.27
8705;BME280;4389;41.932;25.904;2023-09-12T00:22:49;-16434.56;;;13.75;90.31
8705;BME280;4389;41.932;25.904;2023-09-12T00:25:17;-16435.59;;;13.79;90.50
8705;BME280;4389;41.932;25.904;2023-09-12T00:27:44;-16434.81;;;13.76;90.85
8705;BME280;4389;41.932;25.904;2023-09-12T00:30:11;-16430.84;;;13.61;90.85
8705;BME280;4389;41.932;25.904;2023-09-12T00:32:38;-16433.75;;;13.72;90.21
8705;BME280;4389;41.932;25.904;2023-09-12T00:35:05;-16433.47;;;13.71;90.34
8705;BME280;4389;41.932;25.904;2023-09-12T00:37:32;-16430.16;;;13.59;90.40
8705;BME280;4389;41.932;25.904;2023-09-12T00:39:59;-16430.28;;;13.59;90.50
8705;BME280;4389;41.932;25.904;2023-09-12T00:42:28;-16428.44;;;13.52;90.86
8705;BME280;4389;41.932;25.904;2023-09-12T00:44:54;-16427.91;;;13.50;90.67
8705;BME280;4389;41.932;25.904;2023-09-12T00:47:22;-16426.03;;;13.43;91.22
8705;BME280;4389;41.932;25.904;2023-09-12T00:49:50;-16425.25;;;13.40;90.59
8705;BME280;4389;41.932;25.904;2023-09-12T00:52:18;-16425.53;;;13.41;90.71
8705;BME280;4389;41.932;25.904;2023-09-12T00:54:46;-16421.94;;;13.28;91.58
8705;BME280;4389;41.932;25.904;2023-09-12T00:57:13;-16419.69;;;13.19;91.40
8705;BME280;4389;41.932;25.904;2023-09-12T00:59:42;-16418.88;;;13.16;92.35
8705;BME280;4389;41.932;25.904;2023-09-12T01:02:09;-16418.22;;;13.14;92.64
8705;BME280;4389;41.932;25.904;2023-09-12T01:04:37;-16419.41;;;13.18;92.61
8705;BME280;4389;41.932;25.904;2023-09-12T01:07:04;-16418.75;;;13.16;93.15
8705;BME280;4389;41.932;25.904;2023-09-12T01:09:31;-16418.34;;;13.14;91.27
8705;BME280;4389;41.932;25.904;2023-09-12T01:11:59;-16418.09;;;13.13;90.22
8705;BME280;4389;41.932;25.904;2023-09-12T01:14:27;-16413.28;;;12.95;90.32
8705;BME280;4389;41.932;25.904;2023-09-12T01:16:56;-16410.75;;;12.86;91.39
8705;BME280;4389;41.932;25.904;2023-09-12T01:19:24;-16412.63;;;12.93;92.66
8705;BME280;4389;41.932;25.904;2023-09-12T01:22:13;-16413.69;;;12.97;92.78
8705;BME280;4389;41.932;25.904;2023-09-12T01:25:06;-16414.09;;;12.98;92.27
8705;BME280;4389;41.932;25.904;2023-09-12T01:27:37;-16413.56;;;12.96;92.83
8705;BME280;4389;41.932;25.904;2023-09-12T01:30:06;-16412.50;;;12.92;92.21
8705;BME280;4389;41.932;25.904;2023-09-12T01:32:35;-16409.44;;;12.81;92.69
8705;BME280;4389;41.932;25.904;2023-09-12T01:35:02;-16407.84;;;12.75;93.40
8705;BME280;4389;41.932;25.904;2023-09-12T01:37:29;-16406.66;;;12.70;93.51
8705;BME280;4389;41.932;25.904;2023-09-12T01:39:56;-16407.19;;;12.72;93.48
8705;BME280;4389;41.932;25.904;2023-09-12T01:42:24;-16406.91;;;12.71;93.70
8705;BME280;4389;41.932;25.904;2023-09-12T01:44:56;-16406.38;;;12.69;93.55
8705;BME280;4389;41.932;25.904;2023-09-12T01:47:24;-16404.13;;;12.61;93.76
8705;BME280;4389;41.932;25.904;2023-09-12T01:49:55;-16407.59;;;12.74;94.45
8705;BME280;4389;41.932;25.904;2023-09-12T01:52:23;-16407.19;;;12.72;94.23
8705;BME280;4389;41.932;25.904;2023-09-12T01:54:51;-16409.03;;;12.79;93.06
8705;BME280;4389;41.932;25.904;2023-09-12T01:57:19;-16409.84;;;12.82;92.34
8705;BME280;4389;41.932;25.904;2023-09-12T01:59:47;-16409.31;;;12.80;92.43
8705;BME280;4389;41.932;25.904;2023-09-12T02:02:16;-16408.50;;;12.77;91.81
8705;BME280;4389;41.932;25.904;2023-09-12T02:04:51;-16409.56;;;12.81;91.25
8705;BME280;4389;41.932;25.904;2023-09-12T02:07:19;-16410.50;;;12.85;90.79
8705;BME280;4389;41.932;25.904;2023-09-12T02:09:47;-16406.91;;;12.71;89.74
8705;BME280;4389;41.932;25.904;2023-09-12T02:12:14;-16402.25;;;12.54;90.23
8705;BME280;4389;41.932;25.904;2023-09-12T02:14:41;-16405.84;;;12.67;90.21
8705;BME280;4389;41.932;25.904;2023-09-12T02:17:07;-16402.78;;;12.56;90.62
8705;BME280;4389;41.932;25.904;2023-09-12T02:19:36;-16403.72;;;12.59;90.33
8705;BME280;4389;41.932;25.904;2023-09-12T02:22:03;-16401.88;;;12.52;90.77
8705;BME280;4389;41.932;25.904;2023-09-12T02:24:30;-16401.59;;;12.51;90.53
8705;BME280;4389;41.932;25.904;2023-09-12T02:26:56;-16401.06;;;12.49;90.53
8705;BME280;4389;41.932;25.904;2023-09-12T02:29:23;-16404.53;;;12.62;91.18
8705;BME280;4389;41.932;25.904;2023-09-12T02:31:50;-16404.00;;;12.60;91.35
8705;BME280;4389;41.932;25.904;2023-09-12T02:34:16;-16401.88;;;12.52;92.62
8705;BME280;4389;41.932;25.904;2023-09-12T02:36:45;-16403.72;;;12.59;92.38
8705;BME280;4389;41.932;25.904;2023-09-12T02:39:11;-16402.94;;;12.56;92.88
8705;BME280;4389;41.932;25.904;2023-09-12T02:41:38;-16400.53;;;12.47;93.62
8705;BME280;4389;41.932;25.904;2023-09-12T02:44:05;-16398.94;;;12.41;93.07
8705;BME280;4389;41.932;25.904;2023-09-12T02:46:32;-16400.53;;;12.47;94.16
8705;BME280;4389;41.932;25.904;2023-09-12T02:48:59;-16401.06;;;12.49;93.63
8705;BME280;4389;41.932;25.904;2023-09-12T02:51:26;-16402.66;;;12.55;92.72
8705;BME280;4389;41.932;25.904;2023-09-12T02:53:54;-16403.19;;;12.57;92.95
8705;BME280;4389;41.932;25.904;2023-09-12T02:56:21;-16396.81;;;12.33;93.02
8705;BME280;4389;41.932;25.904;2023-09-12T02:58:48;-16398.16;;;12.38;93.31
8705;BME280;4389;41.932;25.904;2023-09-12T03:01:15;-16402.41;;;12.54;94.06
8705;BME280;4389;41.932;25.904;2023-09-12T03:03:42;-16402.41;;;12.54;92.91
8705;BME280;4389;41.932;25.904;2023-09-12T03:06:13;-16400.81;;;12.48;92.94
8705;BME280;4389;41.932;25.904;2023-09-12T03:08:40;-16398.69;;;12.40;92.31
8705;BME280;4389;41.932;25.904;2023-09-12T03:11:09;-16401.06;;;12.49;92.52
8705;BME280;4389;41.932;25.904;2023-09-12T03:13:36;-16398.81;;;12.41;92.59
8705;BME280;4389;41.932;25.904;2023-09-12T03:16:04;-16399.47;;;12.43;92.02
8705;BME280;4389;41.932;25.904;2023-09-12T03:18:30;-16398.41;;;12.39;91.08
8705;BME280;4389;41.932;25.904;2023-09-12T03:20:57;-16396.94;;;12.34;91.54
8705;BME280;4389;41.932;25.904;2023-09-12T03:23:24;-16400.53;;;12.47;90.93
8705;BME280;4389;41.932;25.904;2023-09-12T03:25:51;-16399.63;;;12.44;90.86
8705;BME280;4389;41.932;25.904;2023-09-12T03:28:19;-16398.94;;;12.41;90.37
8705;BME280;4389;41.932;25.904;2023-09-12T03:30:46;-16395.22;;;12.27;90.69
8705;BME280;4389;41.932;25.904;2023-09-12T03:33:13;-16391.78;;;12.14;91.01
8705;BME280;4389;41.932;25.904;2023-09-12T03:35:43;-16389.66;;;12.06;91.28
8705;BME280;4389;41.932;25.904;2023-09-12T03:38:09;-16388.84;;;12.03;91.77
8705;BME280;4389;41.932;25.904;2023-09-12T03:40:37;-16390.97;;;12.11;91.75
8705;BME280;4389;41.932;25.904;2023-09-12T03:43:04;-16387.78;;;11.99;91.55
8705;BME280;4389;41.932;25.904;2023-09-12T03:45:32;-16387.78;;;11.99;92.78
8705;BME280;4389;41.932;25.904;2023-09-12T03:47:59;-16390.19;;;12.08;91.59
8705;BME280;4389;41.932;25.904;2023-09-12T03:50:26;-16389.78;;;12.07;92.14
8705;BME280;4389;41.932;25.904;2023-09-12T03:52:52;-16392.31;;;12.16;92.31
8705;BME280;4389;41.932;25.904;2023-09-12T03:55:19;-16394.44;;;12.24;92.91
8705;BME280;4389;41.932;25.904;2023-09-12T03:57:46;-16396.16;;;12.31;92.86
8705;BME280;4389;41.932;25.904;2023-09-12T04:00:14;-16395.09;;;12.27;92.25
8705;BME280;4389;41.932;25.904;2023-09-12T04:02:42;-16394.44;;;12.24;92.08
8705;BME280;4389;41.932;25.904;2023-09-12T04:05:09;-16396.56;;;12.32;92.82
8705;BME280;4389;41.932;25.904;2023-09-12T04:07:36;-16396.81;;;12.33;91.88
8705;BME280;4389;41.932;25.904;2023-09-12T04:10:03;-16395.75;;;12.29;93.02
8705;BME280;4389;41.932;25.904;2023-09-12T04:12:30;-16394.97;;;12.26;93.52
8705;BME280;4389;41.932;25.904;2023-09-12T04:14:57;-16393.38;;;12.20;93.40
8705;BME280;4389;41.932;25.904;2023-09-12T04:17:23;-16393.38;;;12.20;93.05
8705;BME280;4389;41.932;25.904;2023-09-12T04:19:52;-16397.63;;;12.36;91.26
8705;BME280;4389;41.932;25.904;2023-09-12T04:22:18;-16402.66;;;12.55;90.41
8705;BME280;4389;41.932;25.904;2023-09-12T04:24:45;-16403.59;;;12.59;90.95
8705;BME280;4389;41.932;25.904;2023-09-12T04:27:12;-16404.53;;;12.62;90.60
8705;BME280;4389;41.932;25.904;2023-09-12T04:29:39;-16401.19;;;12.50;89.51
8705;BME280;4389;41.932;25.904;2023-09-12T04:32:06;-16401.06;;;12.49;90.12
8705;BME280;4389;41.932;25.904;2023-09-12T04:34:33;-16402.41;;;12.54;89.26
8705;BME280;4389;41.932;25.904;2023-09-12T04:37:02;-16406.50;;;12.70;88.39
8705;BME280;4389;41.932;25.904;2023-09-12T04:39:30;-16409.19;;;12.80;87.69
8705;BME280;4389;41.932;25.904;2023-09-12T04:41:57;-16411.69;;;12.89;87.97
8705;BME280;4389;41.932;25.904;2023-09-12T04:44:24;-16413.56;;;12.96;87.95
8705;BME280;4389;41.932;25.904;2023-09-12T04:46:51;-16415.69;;;13.04;88.38
8705;BME280;4389;41.932;25.904;2023-09-12T04:49:18;-16416.22;;;13.06;88.33
8705;BME280;4389;41.932;25.904;2023-09-12T04:51:45;-16418.75;;;13.16;88.03
8705;BME280;4389;41.932;25.904;2023-09-12T04:54:13;-16422.59;;;13.30;88.22
8705;BME280;4389;41.932;25.904;2023-09-12T04:56:40;-16426.31;;;13.44;87.52
8705;BME280;4389;41.932;25.904;2023-09-12T04:59:06;-16429.63;;;13.57;86.96
8705;BME280;4389;41.932;25.904;2023-09-12T05:01:33;-16437.47;;;13.86;86.26
8705;BME280;4389;41.932;25.904;2023-09-12T05:04:00;-16443.84;;;14.10;85.09
8705;BME280;4389;41.932;25.904;2023-09-12T05:06:28;-16445.44;;;14.16;84.75
8705;BME280;4389;41.932;25.904;2023-09-12T05:08:55;-16452.06;;;14.41;84.00
8705;BME280;4389;41.932;25.904;2023-09-12T05:11:23;-16456.06;;;14.56;83.70
8705;BME280;4389;41.932;25.904;2023-09-12T05:13:50;-16459.78;;;14.70;83.21
8705;BME280;4389;41.932;25.904;2023-09-12T05:16:17;-16463.22;;;14.83;82.42
8705;BME280;4389;41.932;25.904;2023-09-12T05:18:44;-16463.75;;;14.85;81.98
8705;BME280;4389;41.932;25.904;2023-09-12T05:21:11;-16466.13;;;14.94;81.94
8705;BME280;4389;41.932;25.904;2023-09-12T05:23:38;-16469.19;;;15.05;81.74
8705;BME280;4389;41.932;25.904;2023-09-12T05:26:05;-16468.53;;;15.03;82.18
8705;BME280;4389;41.932;25.904;2023-09-12T05:28:33;-16472.25;;;15.17;81.88
8705;BME280;4389;41.932;25.904;2023-09-12T05:31:00;-16475.97;;;15.31;81.15
8705;BME280;4389;41.932;25.904;2023-09-12T05:33:28;-16480.47;;;15.48;80.91
8705;BME280;4389;41.932;25.904;2023-09-12T05:35:54;-16484.72;;;15.64;80.51
8705;BME280;4389;41.932;25.904;2023-09-12T05:38:21;-16486.31;;;15.70;79.76
8705;BME280;4389;41.932;25.904;2023-09-12T05:40:48;-16485.25;;;15.66;80.75
8705;BME280;4389;41.932;25.904;2023-09-12T05:43:15;-16489.22;;;15.81;79.83
8705;BME280;4389;41.932;25.904;2023-09-12T05:45:44;-16491.34;;;15.89;79.58
8705;BME280;4389;41.932;25.904;2023-09-12T05:48:10;-16495.34;;;16.04;79.64
8705;BME280;4389;41.932;25.904;2023-09-12T05:50:37;-16498.25;;;16.15;79.18
8705;BME280;4389;41.932;25.904;2023-09-12T05:53:04;-16499.44;;;16.19;79.75
8705;BME280;4389;41.932;25.904;2023-09-12T05:55:31;-16505.69;;;16.43;79.31
8705;BME280;4389;41.932;25.904;2023-09-12T05:57:58;-16510.59;;;16.61;79.24
8705;BME280;4389;41.932;25.904;2023-09-12T06:00:24;-16511.25;;;16.64;79.20
8705;BME280;4389;41.932;25.904;2023-09-12T06:02:53;-16516.28;;;16.83;78.39
8705;BME280;4389;41.932;25.904;2023-09-12T06:05:19;-16511.78;;;16.66;78.95
8705;BME280;4389;41.932;25.904;2023-09-12T06:07:46;-16519.47;;;16.95;78.08
8705;BME280;4389;41.932;25.904;2023-09-12T06:10:13;-16523.44;;;17.10;78.29
8705;BME280;4389;41.932;25.904;2023-09-12T06:12:40;-16529.41;;;17.32;77.67
8705;BME280;4389;41.932;25.904;2023-09-12T06:15:07;-16528.47;;;17.29;78.13
8705;BME280;4389;41.932;25.904;2023-09-12T06:17:33;-16536.16;;;17.58;78.62
8705;BME280;4389;41.932;25.904;2023-09-12T06:20:02;-16537.50;;;17.63;78.36
8705;BME280;4389;41.932;25.904;2023-09-12T06:22:31;-16540.00;;;17.72;77.42
8705;BME280;4389;41.932;25.904;2023-09-12T06:24:59;-16542.53;;;17.82;78.15
8705;BME280;4389;41.932;25.904;2023-09-12T06:27:26;-16545.69;;;17.94;77.39
8705;BME280;4389;41.932;25.904;2023-09-12T06:29:52;-16548.88;;;18.06;77.18
8705;BME280;4389;41.932;25.904;2023-09-12T06:32:19;-16551.66;;;18.16;76.74
8705;BME280;4389;41.932;25.904;2023-09-12T06:34:46;-16555.78;;;18.32;76.61
8705;BME280;4389;41.932;25.904;2023-09-12T06:37:15;-16563.72;;;18.62;75.17
8705;BME280;4389;41.932;25.904;2023-09-12T06:39:42;-16565.84;;;18.70;75.60
8705;BME280;4389;41.932;25.904;2023-09-12T06:42:09;-16570.34;;;18.87;75.16
8705;BME280;4389;41.932;25.904;2023-09-12T06:44:36;-16571.81;;;18.92;75.17
8705;BME280;4389;41.932;25.904;2023-09-12T06:47:04;-16572.84;;;18.96;76.09
8705;BME280;4389;41.932;25.904;2023-09-12T06:49:31;-16578.28;;;19.16;75.42
8705;BME280;4389;41.932;25.904;2023-09-12T06:51:58;-16582.00;;;19.30;75.81
8705;BME280;4389;41.932;25.904;2023-09-12T06:54:26;-16587.28;;;19.50;75.03
8705;BME280;4389;41.932;25.904;2023-09-12T06:56:53;-16589.94;;;19.60;73.41
8705;BME280;4389;41.932;25.904;2023-09-12T06:59:20;-16589.41;;;19.58;73.37
8705;BME280;4389;41.932;25.904;2023-09-12T07:01:47;-16593.13;;;19.72;73.07
8705;BME280;4389;41.932;25.904;2023-09-12T07:04:14;-16597.63;;;19.89;72.83
8705;BME280;4389;41.932;25.904;2023-09-12T07:06:41;-16599.19;;;19.95;72.13
8705;BME280;4389;41.932;25.904;2023-09-12T07:09:08;-16602.38;;;20.07;71.86
8705;BME280;4389;41.932;25.904;2023-09-12T07:11:38;-16601.31;;;20.03;72.09
8705;BME280;4389;41.932;25.904;2023-09-12T07:14:05;-16607.81;;;20.28;71.84
8705;BME280;4389;41.932;25.904;2023-09-12T07:16:32;-16613.50;;;20.49;71.60
8705;BME280;4389;41.932;25.904;2023-09-12T07:18:59;-16617.31;;;20.64;70.33
8705;BME280;4389;41.932;25.904;2023-09-12T07:21:26;-16619.03;;;20.70;70.07
8705;BME280;4389;41.932;25.904;2023-09-12T07:23:53;-16617.72;;;20.65;69.79
8705;BME280;4389;41.932;25.904;2023-09-12T07:26:22;-16624.06;;;20.89;69.62
8705;BME280;4389;41.932;25.904;2023-09-12T07:28:50;-16630.16;;;21.12;68.42
8705;BME280;4389;41.932;25.904;2023-09-12T07:31:17;-16633.72;;;21.26;68.39
8705;BME280;4389;41.932;25.904;2023-09-12T07:33:44;-16635.97;;;21.34;67.55
8705;BME280;4389;41.932;25.904;2023-09-12T07:36:11;-16635.97;;;21.34;67.80
8705;BME280;4389;41.932;25.904;2023-09-12T07:38:38;-16638.88;;;21.45;67.42
8705;BME280;4389;41.932;25.904;2023-09-12T07:41:05;-16641.78;;;21.56;67.19
8705;BME280;4389;41.932;25.904;2023-09-12T07:43:31;-16640.59;;;21.52;66.37
8705;BME280;4389;41.932;25.904;2023-09-12T07:46:00;-16645.50;;;21.70;65.23
8705;BME280;4389;41.932;25.904;2023-09-12T07:48:27;-16645.75;;;21.71;65.63
8705;BME280;4389;41.932;25.904;2023-09-12T07:50:54;-16649.47;;;21.85;65.63
8705;BME280;4389;41.932;25.904;2023-09-12T07:53:21;-16651.56;;;21.93;64.30
8705;BME280;4389;41.932;25.904;2023-09-12T07:55:48;-16655.00;;;22.06;64.12
8705;BME280;4389;41.932;25.904;2023-09-12T07:58:15;-16658.44;;;22.19;63.84
8705;BME280;4389;41.932;25.904;2023-09-12T08:00:44;-16664.66;;;22.43;62.29
8705;BME280;4389;41.932;25.904;2023-09-12T08:03:12;-16666.09;;;22.48;61.49
8705;BME280;4389;41.932;25.904;2023-09-12T08:05:39;-16666.38;;;22.49;61.63
8705;BME280;4389;41.932;25.904;2023-09-12T08:08:06;-16669.00;;;22.59;61.45
8705;BME280;4389;41.932;25.904;2023-09-12T08:10:33;-16672.44;;;22.72;61.26
8705;BME280;4389;41.932;25.904;2023-09-12T08:12:59;-16674.81;;;22.81;60.59
8705;BME280;4389;41.932;25.904;2023-09-12T08:15:26;-16671.66;;;22.69;60.44
8705;BME280;4389;41.932;25.904;2023-09-12T08:17:54;-16680.09;;;23.01;59.24
8705;BME280;4389;41.932;25.904;2023-09-12T08:20:22;-16682.22;;;23.09;58.88
8705;BME280;4389;41.932;25.904;2023-09-12T08:22:49;-16686.97;;;23.27;58.50
8705;BME280;4389;41.932;25.904;2023-09-12T08:25:16;-16688.81;;;23.34;57.11
8705;BME280;4389;41.932;25.904;2023-09-12T08:27:43;-16688.03;;;23.31;56.89
8705;BME280;4389;41.932;25.904;2023-09-12T08:30:11;-16689.63;;;23.37;56.68
8705;BME280;4389;41.932;25.904;2023-09-12T08:32:39;-16690.16;;;23.39;56.32
8705;BME280;4389;41.932;25.904;2023-09-12T08:35:09;-16693.06;;;23.50;55.32
8705;BME280;4389;41.932;25.904;2023-09-12T08:37:39;-16696.47;;;23.63;54.72
8705;BME280;4389;41.932;25.904;2023-09-12T08:40:08;-16699.13;;;23.73;54.91
8705;BME280;4389;41.932;25.904;2023-09-12T08:42:39;-16699.25;;;23.74;54.29
8705;BME280;4389;41.932;25.904;2023-09-12T08:45:12;-16702.28;;;23.85;52.77
8705;BME280;4389;41.932;25.904;2023-09-12T08:47:41;-16706.00;;;23.99;51.46
8705;BME280;4389;41.932;25.904;2023-09-12T08:50:10;-16710.22;;;24.15;51.02
8705;BME280;4389;41.932;25.904;2023-09-12T08:52:41;-16714.97;;;24.33;51.25
8705;BME280;4389;41.932;25.904;2023-09-12T08:55:08;-16712.84;;;24.25;49.62
8705;BME280;4389;41.932;25.904;2023-09-12T08:57:37;-16708.63;;;24.09;50.36
8705;BME280;4389;41.932;25.904;2023-09-12T09:00:06;-16710.06;;;24.15;50.84
8705;BME280;4389;41.932;25.904;2023-09-12T09:02:34;-16708.09;;;24.07;51.64
8705;BME280;4389;41.932;25.904;2023-09-12T09:05:02;-16710.34;;;24.16;51.51
8705;BME280;4389;41.932;25.904;2023-09-12T09:07:32;-16711.94;;;24.22;51.40
8705;BME280;4389;41.932;25.904;2023-09-12T09:10:03;-16713.38;;;24.27;51.07
8705;BME280;4389;41.932;25.904;2023-09-12T09:12:31;-16713.91;;;24.29;50.52
8705;BME280;4389;41.932;25.904;2023-09-12T09:14:58;-16720.22;;;24.53;49.71
8705;BME280;4389;41.932;25.904;2023-09-12T09:17:26;-16722.88;;;24.63;49.18
8705;BME280;4389;41.932;25.904;2023-09-12T09:19:53;-16727.38;;;24.80;49.62
8705;BME280;4389;41.932;25.904;2023-09-12T09:22:20;-16729.72;;;24.89;48.86
8705;BME280;4389;41.932;25.904;2023-09-12T09:24:48;-16731.59;;;24.96;48.80
8705;BME280;4389;41.932;25.904;2023-09-12T09:30:12;-16731.84;;;24.97;48.44
8705;BME280;4389;41.932;25.904;2023-09-12T09:32:39;-16733.69;;;25.04;47.64
8705;BME280;4389;41.932;25.904;2023-09-12T09:35:07;-16736.84;;;25.16;46.52
8705;BME280;4389;41.932;25.904;2023-09-12T09:37:36;-16741.34;;;25.33;46.38
8705;BME280;4389;41.932;25.904;2023-09-12T09:40:05;-16743.84;;;25.42;45.20
8705;BME280;4389;41.932;25.904;2023-09-12T09:42:32;-16740.94;;;25.31;44.62
8705;BME280;4389;41.932;25.904;2023-09-12T09:44:59;-16746.34;;;25.52;44.31
8705;BME280;4389;41.932;25.904;2023-09-12T09:47:28;-16752.69;;;25.76;44.49
8705;BME280;4389;41.932;25.904;2023-09-12T09:49:57;-16758.22;;;25.97;44.39
8705;BME280;4389;41.932;25.904;2023-09-12T09:52:27;-16761.63;;;26.10;42.89
8705;BME280;4389;41.932;25.904;2023-09-12T09:54:54;-16764.41;;;26.20;43.01
8705;BME280;4389;41.932;25.904;2023-09-12T09:57:25;-16762.56;;;26.13;43.11
8705;BME280;4389;41.932;25.904;2023-09-12T09:59:52;-16765.19;;;26.23;42.49
8705;BME280;4389;41.932;25.904;2023-09-12T10:02:22;-16762.84;;;26.14;42.66
8705;BME280;4389;41.932;25.904;2023-09-12T10:04:54;-16758.75;;;25.99;42.80
8705;BME280;4389;41.932;25.904;2023-09-12T10:07:21;-16761.13;;;26.08;42.40
8705;BME280;4389;41.932;25.904;2023-09-12T10:09:49;-16760.72;;;26.06;42.52
8705;BME280;4389;41.932;25.904;2023-09-12T10:12:16;-16760.06;;;26.04;42.92
8705;BME280;4389;41.932;25.904;2023-09-12T10:14:44;-16761.38;;;26.09;42.99
8705;BME280;4389;41.932;25.904;2023-09-12T10:17:12;-16761.78;;;26.10;43.02
8705;BME280;4389;41.932;25.904;2023-09-12T10:19:44;-16767.72;;;26.33;42.74
8705;BME280;4389;41.932;25.904;2023-09-12T10:22:21;-16771.53;;;26.47;42.21
8705;BME280;4389;41.932;25.904;2023-09-12T10:24:51;-16776.53;;;26.66;41.74
8705;BME280;4389;41.932;25.904;2023-09-12T10:27:20;-16779.97;;;26.79;41.24
8705;BME280;4389;41.932;25.904;2023-09-12T10:29:49;-16778.78;;;26.75;40.71
8705;BME280;4389;41.932;25.904;2023-09-12T10:32:19;-16778.50;;;26.74;41.38
8705;BME280;4389;41.932;25.904;2023-09-12T10:34:47;-16774.16;;;26.57;41.19
8705;BME280;4389;41.932;25.904;2023-09-12T10:37:16;-16772.97;;;26.53;40.93
8705;BME280;4389;41.932;25.904;2023-09-12T10:39:45;-16773.78;;;26.56;41.17
8705;BME280;4389;41.932;25.904;2023-09-12T10:42:13;-16780.47;;;26.81;40.72
8705;BME280;4389;41.932;25.904;2023-09-12T10:44:40;-16782.97;;;26.91;40.94
8705;BME280;4389;41.932;25.904;2023-09-12T10:47:08;-16781.66;;;26.86;41.58
8705;BME280;4389;41.932;25.904;2023-09-12T10:49:36;-16782.72;;;26.90;40.77
8705;BME280;4389;41.932;25.904;2023-09-12T10:52:04;-16782.19;;;26.88;40.72
8705;BME280;4389;41.932;25.904;2023-09-12T10:54:36;-16781.53;;;26.85;40.75
8705;BME280;4389;41.932;25.904;2023-09-12T10:57:06;-16785.63;;;27.01;40.52
8705;BME280;4389;41.932;25.904;2023-09-12T10:59:34;-16790.09;;;27.18;40.17
8705;BME280;4389;41.932;25.904;2023-09-12T11:02:27;-16795.09;;;27.37;39.83
8705;BME280;4389;41.932;25.904;2023-09-12T11:05:35;-16797.88;;;27.47;39.57
8705;BME280;4389;41.932;25.904;2023-09-12T11:08:12;-16799.84;;;27.55;39.48
8705;BME280;4389;41.932;25.904;2023-09-12T11:10:39;-16795.63;;;27.39;39.08
8705;BME280;4389;41.932;25.904;2023-09-12T11:13:16;-16800.09;;;27.56;39.42
8705;BME280;4389;41.932;25.904;2023-09-12T11:16:10;-16798.00;;;27.48;39.27
8705;BME280;4389;41.932;25.904;2023-09-12T11:21:38;-16801.16;;;27.60;39.13
8705;BME280;4389;41.932;25.904;2023-09-12T11:24:05;-16805.38;;;27.76;38.78
8705;BME280;4389;41.932;25.904;2023-09-12T11:26:32;-16811.44;;;27.99;38.26
8705;BME280;4389;41.932;25.904;2023-09-12T11:29:11;-16817.75;;;28.23;38.37
8705;BME280;4389;41.932;25.904;2023-09-12T11:31:38;-16820.09;;;28.32;37.71
8705;BME280;4389;41.932;25.904;2023-09-12T11:34:08;-16823.25;;;28.44;37.96
8705;BME280;4389;41.932;25.904;2023-09-12T11:36:41;-16816.94;;;28.20;38.25
8705;BME280;4389;41.932;25.904;2023-09-12T11:39:22;-16814.59;;;28.11;38.32
8705;BME280;4389;41.932;25.904;2023-09-12T11:41:50;-16810.09;;;27.94;38.27
8705;BME280;4389;41.932;25.904;2023-09-12T11:44:20;-16811.56;;;27.99;38.46
8705;BME280;4389;41.932;25.904;2023-09-12T11:46:48;-16811.03;;;27.97;38.46
8705;BME280;4389;41.932;25.904;2023-09-12T11:49:16;-16816.03;;;28.16;38.30
8705;BME280;4389;41.932;25.904;2023-09-12T11:51:48;-16820.09;;;28.32;37.98
8705;BME280;4389;41.932;25.904;2023-09-12T11:54:15;-16824.44;;;28.48;37.44
8705;BME280;4389;41.932;25.904;2023-09-12T11:56:42;-16828.78;;;28.65;37.11
8705;BME280;4389;41.932;25.904;2023-09-12T11:59:10;-16833.38;;;28.82;37.36
8705;BME280;4389;41.932;25.904;2023-09-12T12:01:38;-16830.91;;;28.73;36.87
8705;BME280;4389;41.932;25.904;2023-09-12T12:04:05;-16830.91;;;28.73;37.20
8705;BME280;4389;41.932;25.904;2023-09-12T12:06:32;-16828.25;;;28.63;37.13
8705;BME280;4389;41.932;25.904;2023-09-12T12:09:01;-16828.66;;;28.64;37.74
8705;BME280;4389;41.932;25.904;2023-09-12T12:11:30;-16825.38;;;28.52;37.75
8705;BME280;4389;41.932;25.904;2023-09-12T12:13:58;-16826.03;;;28.54;37.77
8705;BME280;4389;41.932;25.904;2023-09-12T12:16:25;-16827.22;;;28.59;37.82
8705;BME280;4389;41.932;25.904;2023-09-12T12:18:53;-16832.47;;;28.79;37.53
8705;BME280;4389;41.932;25.904;2023-09-12T12:21:22;-16833.00;;;28.81;36.72
8705;BME280;4389;41.932;25.904;2023-09-12T12:23:57;-16836.69;;;28.95;37.01
8705;BME280;4389;41.932;25.904;2023-09-12T12:26:25;-16831.41;;;28.75;37.21
8705;BME280;4389;41.932;25.904;2023-09-12T12:28:52;-16831.41;;;28.75;36.98
8705;BME280;4389;41.932;25.904;2023-09-12T12:31:19;-16828.25;;;28.63;36.92
8705;BME280;4389;41.932;25.904;2023-09-12T12:33:51;-16834.31;;;28.86;36.55
8705;BME280;4389;41.932;25.904;2023-09-12T12:36:20;-16839.84;;;29.07;36.32
8705;BME280;4389;41.932;25.904;2023-09-12T12:38:48;-16845.34;;;29.28;36.68
8705;BME280;4389;41.932;25.904;2023-09-12T12:41:16;-16851.13;;;29.50;35.88
8705;BME280;4389;41.932;25.904;2023-09-12T12:43:43;-16848.25;;;29.39;35.95
8705;BME280;4389;41.932;25.904;2023-09-12T12:46:11;-16851.41;;;29.51;35.68
8705;BME280;4389;41.932;25.904;2023-09-12T12:48:41;-16851.94;;;29.53;35.46
8705;BME280;4389;41.932;25.904;2023-09-12T12:51:15;-16854.81;;;29.64;35.33
8705;BME280;4389;41.932;25.904;2023-09-12T12:53:45;-16856.94;;;29.72;35.65
8705;BME280;4389;41.932;25.904;2023-09-12T12:56:14;-16854.03;;;29.61;36.03
8705;BME280;4389;41.932;25.904;2023-09-12T12:58:51;-16855.34;;;29.66;34.92
8705;BME280;4389;41.932;25.904;2023-09-12T13:01:18;-16857.72;;;29.75;35.60
8705;BME280;4389;41.932;25.904;2023-09-12T13:03:45;-16861.13;;;29.88;35.01
8705;BME280;4389;41.932;25.904;2023-09-12T13:06:12;-16864.03;;;29.99;35.18
8705;BME280;4389;41.932;25.904;2023-09-12T13:08:45;-16866.38;;;30.08;34.60
8705;BME280;4389;41.932;25.904;2023-09-12T13:11:13;-16866.13;;;30.07;34.56